Tropical Cyclones
[Index]
Main Index Home Page Stock Weather Photos Extreme Storms Discussion Storm News and Storm Chasing Reports Tropical Cyclones / Hurricanes / Typhoons Weather Data and Links Wild Fires / Bushfires Weather Observation Techniques Weather Picture Catalogue Tornado Pictures and Reports Stock Video Footage and DVDs for sale
Season 1978-1979 Tropical Cyclone HENRY Track Map
Season 1978-1979 Summaries: [BoM-AU] [JTWC-AU] [JTWC-SIO] [JTWC-SPAC] [JTWC-SH]
<<- Previous TC | JTWC 1978-1979 Season | Next TC ->>

click for intensity scale information  Lat/long Grid: Show Hide

 Date Labels: Show Hide

Joint Typhoon Warning Centre Cyclone Data

Name: HENRY
Number: 997 / 7909

27 Jan 1979 00:00 UTC to 05 Feb 1979 00:00 UTC

    date/time    lat    long     hPa   cat  kts
1979-01-27 00   14.5   166.5                  30          
1979-01-27 06   14.4   166.6                  30          
1979-01-27 12   14.3   166.5                  30          
1979-01-27 18   14.2   166.2                  30          
1979-01-28 00   14.0   166.0                  30          
1979-01-28 06   13.9   165.9                  30          
1979-01-28 12   13.8   165.8                  30          
1979-01-28 18   13.7   165.7                  30          
1979-01-29 00   13.5   165.5                  30          
1979-01-29 06   13.2   165.2                  30          
1979-01-29 12   13.0   165.0                  35          
1979-01-29 18   13.1   166.2                  35          
1979-01-30 00   13.4   167.8                  35          
1979-01-30 06   13.7   168.5                  35          
1979-01-30 12   14.1   169.0                  35          
1979-01-30 18   14.6   169.2            1     40          
1979-01-31 00   15.1   169.4            1     40          
1979-01-31 06   15.4   169.7            1     40          
1979-01-31 12   15.8   170.0            1     40          
1979-01-31 18   16.1   170.0            1     45          
1979-02-01 00   16.5   170.1            1     45          
1979-02-01 06   17.1   170.5            1     45          
1979-02-01 12   18.0   171.0            1     45          
1979-02-01 18   19.0   171.4            1     50          
1979-02-02 00   20.2   171.8            1     50          
1979-02-02 06   21.4   172.2            1     50          
1979-02-02 12   23.0   172.5            1     50          
1979-02-02 18   25.5   172.3            1     45          
1979-02-03 00   28.0   171.5            1     45          
1979-02-03 06   30.0   170.3            1     45          
1979-02-03 12   32.0   169.0            1     50          
1979-02-03 18   33.9   167.5            1     50          
1979-02-04 00   36.0   166.0            1     50          
1979-02-04 06   38.4   165.7            1     50          
1979-02-04 12   41.0   167.0            1     45          
1979-02-04 18   43.5   170.0            1     45          
1979-02-05 00   46.0   175.0            1     40          
Winds are 1-min average.

Tropical cyclone tracks developed by Michael Bath using data from the Joint Typhoon Warning Centre Best Tracks and Google Maps.


[Australian Severe Weather index] [Copyright Notice] [Email Contacts] [Search This Site] [Privacy Policy]
Document: tropical_cyclone_henry.htm Updated: 18 September 2016